createdAt,value
2022-08-11T00:02:02.312Z,4.25
2022-08-11T00:04:37.347Z,4.47
2022-08-11T00:07:07.171Z,4.32
2022-08-11T00:09:38.921Z,4.30
2022-08-11T00:12:16.771Z,4.05
2022-08-11T00:14:46.494Z,4.17
2022-08-11T00:17:17.368Z,4.29
2022-08-11T00:20:15.023Z,4.04
2022-08-11T00:22:40.195Z,3.97
2022-08-11T00:25:20.465Z,4.15
2022-08-11T00:27:49.413Z,4.45
2022-08-11T00:30:17.728Z,4.20
2022-08-11T00:32:56.248Z,4.14
2022-08-11T00:35:52.558Z,4.20
2022-08-11T00:38:23.497Z,4.23
2022-08-11T00:41:01.273Z,4.28
2022-08-11T00:43:43.986Z,4.50
2022-08-11T00:46:23.279Z,4.23
2022-08-11T00:49:08.788Z,4.07
2022-08-11T00:52:17.468Z,4.48
2022-08-11T00:55:03.213Z,4.27
2022-08-11T00:57:52.684Z,4.43
2022-08-11T01:00:23.617Z,4.15
2022-08-11T01:03:23.804Z,4.71
2022-08-11T01:06:12.930Z,4.72
2022-08-11T01:09:07.276Z,4.55
2022-08-11T01:12:25.788Z,4.42
2022-08-11T01:15:24.665Z,4.32
2022-08-11T01:18:13.561Z,4.57
2022-08-11T01:20:59.555Z,4.80
2022-08-11T01:23:48.555Z,4.84
2022-08-11T01:26:51.307Z,4.68
2022-08-11T01:29:56.471Z,4.22
2022-08-11T01:33:20.105Z,4.80
2022-08-11T01:36:53.475Z,4.41
2022-08-11T01:39:50.965Z,4.85
2022-08-11T01:43:28.671Z,4.70
2022-08-11T01:46:23.052Z,4.93
2022-08-11T01:49:58.513Z,4.88
2022-08-11T01:52:19.813Z,4.74
2022-08-11T01:55:36.608Z,4.67
2022-08-11T01:58:21.100Z,5.10
2022-08-11T02:01:37.332Z,5.05
2022-08-11T02:04:15.191Z,5.21
2022-08-11T02:06:56.327Z,5.11
2022-08-11T02:09:51.984Z,5.12
2022-08-11T02:12:51.203Z,5.57
2022-08-11T02:15:44.006Z,5.46
2022-08-11T02:18:54.236Z,5.29
2022-08-11T02:22:05.966Z,5.61
2022-08-11T02:24:50.350Z,6.01
2022-08-11T02:27:27.502Z,5.93
2022-08-11T02:30:12.030Z,5.85
2022-08-11T02:33:23.534Z,6.02
2022-08-11T02:36:28.878Z,6.15
2022-08-11T02:39:16.591Z,5.80
2022-08-11T02:42:32.417Z,6.02
2022-08-11T02:45:32.594Z,5.99
2022-08-11T02:48:37.136Z,6.15
2022-08-11T02:51:21.767Z,5.81
2022-08-11T02:54:23.095Z,5.89
2022-08-11T02:57:22.874Z,5.89
2022-08-11T02:59:56.806Z,6.06
2022-08-11T03:02:42.620Z,6.10
2022-08-11T03:05:32.958Z,5.97
2022-08-11T03:08:18.852Z,6.09
2022-08-11T03:11:25.837Z,6.03
2022-08-11T03:14:44.236Z,6.08
2022-08-11T03:17:28.495Z,5.85
2022-08-11T03:20:15.760Z,6.04
2022-08-11T03:22:58.335Z,6.56
2022-08-11T03:25:44.561Z,5.96
2022-08-11T03:28:34.102Z,6.26
2022-08-11T03:31:12.831Z,6.16
2022-08-11T03:34:07.531Z,6.19
2022-08-11T03:37:15.660Z,6.51
2022-08-11T03:40:06.674Z,6.59
2022-08-11T03:42:52.301Z,6.60
2022-08-11T03:45:26.334Z,6.29
2022-08-11T03:48:14.497Z,6.62
2022-08-11T03:51:14.466Z,6.52
2022-08-11T03:53:52.053Z,6.17
2022-08-11T03:56:38.661Z,6.40
2022-08-11T03:59:39.667Z,5.97
2022-08-11T04:02:19.404Z,6.45
2022-08-11T04:04:52.885Z,6.19
2022-08-11T04:07:42.790Z,6.26
2022-08-11T04:10:37.177Z,6.52
2022-08-11T04:13:42.391Z,6.58
2022-08-11T04:16:44.750Z,6.89
2022-08-11T04:20:02.103Z,6.76
2022-08-11T04:22:54.445Z,6.67
2022-08-11T04:25:58.147Z,6.59
2022-08-11T04:29:01.577Z,6.55
2022-08-11T04:31:44.255Z,6.63
2022-08-11T04:34:50.737Z,6.80
2022-08-11T04:37:38.243Z,6.57
2022-08-11T04:40:21.059Z,6.59
2022-08-11T04:43:25.778Z,6.14
2022-08-11T04:46:28.744Z,6.65
2022-08-11T04:49:39.037Z,6.79
2022-08-11T04:53:00.154Z,6.54
2022-08-11T04:56:35.665Z,6.69
2022-08-11T04:59:59.065Z,6.77
2022-08-11T05:02:55.354Z,7.89
2022-08-11T05:06:25.357Z,8.12
2022-08-11T05:09:02.113Z,6.99
2022-08-11T05:11:48.397Z,7.05
2022-08-11T05:15:07.634Z,6.96
2022-08-11T05:18:19.591Z,6.57
2022-08-11T05:21:22.162Z,6.83
2022-08-11T05:24:21.997Z,6.44
2022-08-11T05:27:13.959Z,6.63
2022-08-11T05:30:05.465Z,6.97
2022-08-11T05:33:03.447Z,6.33
2022-08-11T05:36:01.705Z,6.12
2022-08-11T05:38:54.797Z,9.48
2022-08-11T05:41:48.144Z,6.63
2022-08-11T05:44:45.930Z,6.07
2022-08-11T05:47:45.922Z,5.34
2022-08-11T05:50:37.346Z,5.34
2022-08-11T05:53:43.662Z,5.68
2022-08-11T05:56:19.505Z,5.47
2022-08-11T05:58:59.075Z,5.44
2022-08-11T06:01:33.365Z,5.39
2022-08-11T06:04:16.873Z,5.26
2022-08-11T06:06:57.595Z,5.27
2022-08-11T06:09:50.076Z,4.99
2022-08-11T06:12:33.567Z,5.52
2022-08-11T06:15:09.198Z,6.52
2022-08-11T06:17:47.062Z,4.96
2022-08-11T06:20:17.031Z,4.93
2022-08-11T06:22:52.802Z,5.33
2022-08-11T06:25:22.035Z,5.11
2022-08-11T06:27:56.763Z,4.79
2022-08-11T06:30:40.002Z,5.09
2022-08-11T06:33:18.064Z,4.99
2022-08-11T06:35:50.228Z,4.83
2022-08-11T06:38:39.264Z,5.05
2022-08-11T06:41:32.549Z,4.75
2022-08-11T06:44:19.564Z,4.56
2022-08-11T06:46:56.544Z,4.65
2022-08-11T06:49:55.857Z,4.61
2022-08-11T06:52:41.967Z,4.64
2022-08-11T06:55:56.857Z,4.52
2022-08-11T06:58:55.955Z,5.21
2022-08-11T07:01:49.343Z,4.13
2022-08-11T07:04:41.890Z,4.60
2022-08-11T07:08:33.203Z,4.06
2022-08-11T07:11:38.178Z,4.38
2022-08-11T07:14:26.522Z,4.25
2022-08-11T07:16:56.542Z,3.92
2022-08-11T07:19:50.323Z,4.28
2022-08-11T07:22:42.856Z,3.96
2022-08-11T07:25:34.592Z,3.99
2022-08-11T07:28:43.914Z,4.42
2022-08-11T07:31:18.184Z,4.45
2022-08-11T07:34:05.821Z,4.08
2022-08-11T07:36:54.636Z,3.76
2022-08-11T07:39:34.748Z,3.87
2022-08-11T07:42:09.606Z,3.56
2022-08-11T07:45:00.617Z,3.70
2022-08-11T07:47:48.669Z,3.64
2022-08-11T07:50:37.123Z,3.59
2022-08-11T07:53:06.199Z,3.49
2022-08-11T07:55:51.799Z,3.67
2022-08-11T07:58:52.298Z,3.45
2022-08-11T08:01:42.861Z,3.32
2022-08-11T08:04:34.417Z,3.52
2022-08-11T08:07:24.015Z,3.53
2022-08-11T08:10:16.229Z,3.47
2022-08-11T08:13:04.303Z,3.42
2022-08-11T08:15:52.013Z,3.64
2022-08-11T08:18:25.983Z,3.47
2022-08-11T08:21:13.351Z,3.21
2022-08-11T08:23:46.433Z,3.30
2022-08-11T08:26:35.149Z,3.58
2022-08-11T08:29:24.981Z,3.63
2022-08-11T08:31:55.061Z,3.55
2022-08-11T08:34:24.560Z,3.56
2022-08-11T08:36:54.378Z,3.56
2022-08-11T08:39:23.080Z,3.76
2022-08-11T08:41:55.207Z,3.54
2022-08-11T08:44:43.536Z,3.30
2022-08-11T08:47:41.521Z,3.36
2022-08-11T08:50:21.677Z,3.44
2022-08-11T08:53:04.105Z,3.55
2022-08-11T08:55:33.888Z,4.21
2022-08-11T08:58:03.599Z,3.59
2022-08-11T09:00:44.851Z,3.56
2022-08-11T09:03:40.619Z,3.44
2022-08-11T09:06:02.699Z,3.56
2022-08-11T09:08:34.152Z,3.18
2022-08-11T09:11:23.116Z,3.16
2022-08-11T09:14:06.490Z,3.49
2022-08-11T09:16:39.690Z,3.52
2022-08-11T09:19:09.182Z,3.27
2022-08-11T09:21:49.173Z,3.55
2022-08-11T09:24:37.997Z,3.21
2022-08-11T09:27:08.740Z,3.44
2022-08-11T09:29:39.206Z,3.48
2022-08-11T09:32:08.987Z,3.72
2022-08-11T09:34:41.460Z,3.49
2022-08-11T09:37:54.999Z,3.50
2022-08-11T09:40:31.075Z,3.15
2022-08-11T09:43:20.101Z,3.21
2022-08-11T09:45:51.821Z,3.21
2022-08-11T09:48:26.219Z,3.17
2022-08-11T09:50:57.776Z,3.35
2022-08-11T09:53:35.731Z,3.34
2022-08-11T09:56:32.158Z,3.33
2022-08-11T09:59:01.272Z,3.23
2022-08-11T10:01:47.305Z,3.15
2022-08-11T10:04:31.400Z,3.31
2022-08-11T10:07:04.438Z,3.33
2022-08-11T10:09:53.592Z,3.40
2022-08-11T10:12:26.418Z,2.90
2022-08-11T10:15:15.903Z,3.34
2022-08-11T10:18:08.001Z,3.63
2022-08-11T10:20:39.767Z,3.35
2022-08-11T10:23:29.767Z,3.62
2022-08-11T10:26:17.025Z,3.75
2022-08-11T10:29:09.897Z,3.54
2022-08-11T10:31:57.050Z,3.56
2022-08-11T10:34:29.079Z,3.71
2022-08-11T10:37:03.248Z,3.75
2022-08-11T10:39:31.730Z,3.63
2022-08-11T10:42:35.045Z,3.82
2022-08-11T10:45:28.612Z,3.61
2022-08-11T10:47:58.477Z,3.53
2022-08-11T10:50:45.756Z,3.47
2022-08-11T10:53:34.522Z,3.55
2022-08-11T10:56:23.564Z,3.51
2022-08-11T10:58:57.574Z,3.63
2022-08-11T11:01:34.831Z,3.65
2022-08-11T11:04:15.521Z,3.77
2022-08-11T11:07:17.179Z,4.18
2022-08-11T11:10:02.844Z,3.38
2022-08-11T11:13:13.484Z,3.45
2022-08-11T11:16:05.782Z,3.36
2022-08-11T11:18:38.033Z,3.20
2022-08-11T11:21:15.455Z,3.21
2022-08-11T11:24:42.778Z,3.31
2022-08-11T11:27:31.115Z,3.48
2022-08-11T11:30:17.928Z,3.39
2022-08-11T11:33:08.218Z,3.34
2022-08-11T11:35:57.367Z,3.28
2022-08-11T11:38:25.495Z,3.11
2022-08-11T11:41:14.248Z,3.21
2022-08-11T11:43:43.878Z,3.06
2022-08-11T11:46:14.291Z,3.43
2022-08-11T11:48:43.514Z,3.50
2022-08-11T11:51:15.187Z,3.48
2022-08-11T11:53:45.764Z,3.52
2022-08-11T11:56:16.126Z,3.14
2022-08-11T11:59:03.440Z,2.97
2022-08-11T12:01:34.040Z,3.40
2022-08-11T12:04:07.956Z,3.40
2022-08-11T12:06:37.725Z,3.64
2022-08-11T12:09:06.867Z,3.70
2022-08-11T12:11:53.764Z,3.61
2022-08-11T12:14:22.489Z,3.15
2022-08-11T12:16:50.692Z,3.61
2022-08-11T12:19:23.476Z,3.34
2022-08-11T12:22:14.098Z,3.57
2022-08-11T12:25:01.629Z,3.43
2022-08-11T12:27:31.830Z,3.48
2022-08-11T12:30:06.627Z,4.04
2022-08-11T12:32:38.642Z,3.93
2022-08-11T12:35:08.275Z,3.70
2022-08-11T12:37:47.917Z,3.40
2022-08-11T12:41:11.695Z,3.58
2022-08-11T12:43:56.906Z,3.36
2022-08-11T12:46:33.004Z,3.77
2022-08-11T12:49:56.140Z,3.72
2022-08-11T12:52:34.104Z,4.45
2022-08-11T12:55:13.675Z,4.11
2022-08-11T12:58:07.172Z,3.76
2022-08-11T13:00:53.587Z,3.85
2022-08-11T13:03:42.590Z,3.52
2022-08-11T13:06:14.271Z,3.73
2022-08-11T13:08:45.117Z,4.53
2022-08-11T13:11:55.945Z,3.90
2022-08-11T13:14:27.346Z,4.08
2022-08-11T13:17:14.766Z,3.90
2022-08-11T13:19:49.605Z,3.89
2022-08-11T13:22:20.367Z,3.84
2022-08-11T13:24:51.981Z,3.70
2022-08-11T13:27:21.156Z,3.53
2022-08-11T13:29:50.730Z,4.00
2022-08-11T13:32:23.180Z,3.81
2022-08-11T13:34:50.909Z,3.88
2022-08-11T13:38:18.354Z,3.54
2022-08-11T13:40:14.573Z,3.76
2022-08-11T13:42:44.029Z,4.00
2022-08-11T13:45:14.598Z,3.96
2022-08-11T13:47:43.488Z,3.82
2022-08-11T13:50:14.938Z,3.69
2022-08-11T13:52:45.024Z,3.66
2022-08-11T13:55:51.174Z,3.68
2022-08-11T13:58:18.473Z,3.72
2022-08-11T14:00:52.901Z,4.04
2022-08-11T14:03:26.084Z,3.91
2022-08-11T14:06:28.330Z,3.63
2022-08-11T14:08:59.437Z,3.83
2022-08-11T14:12:22.224Z,4.17
2022-08-11T14:14:37.246Z,3.90
2022-08-11T14:17:09.009Z,4.05
2022-08-11T14:19:43.495Z,3.98
2022-08-11T14:22:16.745Z,3.74
2022-08-11T14:24:52.370Z,3.89
2022-08-11T14:28:22.057Z,4.04
2022-08-11T14:30:35.532Z,3.94
2022-08-11T14:33:16.444Z,3.96
2022-08-11T14:35:50.214Z,3.92
2022-08-11T14:38:20.034Z,3.71
2022-08-11T14:41:08.217Z,3.77
2022-08-11T14:44:10.418Z,3.52
2022-08-11T14:47:02.962Z,5.77
2022-08-11T14:49:36.250Z,4.02
2022-08-11T14:52:25.646Z,4.51
2022-08-11T14:55:13.229Z,3.96
2022-08-11T14:57:55.027Z,3.88
2022-08-11T15:00:23.990Z,3.71
2022-08-11T15:03:14.358Z,3.73
2022-08-11T15:05:57.306Z,3.96
2022-08-11T15:08:54.857Z,3.82
2022-08-11T15:11:44.683Z,3.85
2022-08-11T15:14:14.565Z,3.92
2022-08-11T15:17:18.702Z,4.13
2022-08-11T15:20:08.222Z,4.18
2022-08-11T15:22:54.493Z,4.24
2022-08-11T15:25:22.643Z,3.95
2022-08-11T15:28:13.257Z,4.13
2022-08-11T15:31:02.573Z,3.85
2022-08-11T15:33:54.288Z,4.21
2022-08-11T15:36:42.952Z,4.24
2022-08-11T15:39:58.734Z,4.13
2022-08-11T15:42:45.087Z,4.61
2022-08-11T15:45:39.907Z,4.04
2022-08-11T15:48:16.710Z,4.12
2022-08-11T15:50:56.014Z,4.14
2022-08-11T15:53:43.052Z,4.38
2022-08-11T15:56:16.044Z,4.58
2022-08-11T15:59:33.762Z,4.10
2022-08-11T16:02:17.198Z,4.32
2022-08-11T16:04:49.501Z,3.85
2022-08-11T16:07:26.652Z,4.19
2022-08-11T16:10:03.053Z,4.13
2022-08-11T16:13:15.734Z,3.94
2022-08-11T16:16:14.742Z,3.99
2022-08-11T16:18:56.962Z,4.91
2022-08-11T16:21:35.977Z,4.45
2022-08-11T16:27:05.338Z,4.03
2022-08-11T16:27:13.482Z,4.13
2022-08-11T16:29:50.730Z,4.13
2022-08-11T16:32:23.572Z,4.18
2022-08-11T16:35:17.449Z,5.44
2022-08-11T16:38:05.629Z,4.38
2022-08-11T16:40:35.289Z,4.38
2022-08-11T16:43:26.320Z,4.28
2022-08-11T16:46:14.690Z,4.32
2022-08-11T16:48:45.813Z,4.34
2022-08-11T16:51:16.269Z,4.27
2022-08-11T16:54:03.645Z,5.87
2022-08-11T16:56:53.692Z,5.07
2022-08-11T16:59:32.131Z,4.34
2022-08-11T17:02:46.274Z,4.46
2022-08-11T17:05:54.389Z,4.11
2022-08-11T17:08:56.688Z,4.74
2022-08-11T17:11:49.949Z,4.38
2022-08-11T17:14:36.219Z,4.84
2022-08-11T17:17:15.846Z,4.45
2022-08-11T17:20:39.681Z,4.55
2022-08-11T17:23:02.468Z,4.35
2022-08-11T17:25:59.295Z,4.38
2022-08-11T17:28:24.571Z,4.72
2022-08-11T17:31:21.846Z,4.67
2022-08-11T17:34:13.195Z,5.56
2022-08-11T17:36:45.964Z,6.54
2022-08-11T17:39:16.602Z,5.23
2022-08-11T17:42:05.173Z,4.82
2022-08-11T17:44:54.121Z,4.80
2022-08-11T17:47:45.241Z,5.08
2022-08-11T17:50:17.081Z,4.88
2022-08-11T17:53:06.173Z,6.38
2022-08-11T17:55:57.553Z,6.44
2022-08-11T17:58:46.175Z,6.20
2022-08-11T18:01:17.829Z,4.64
2022-08-11T18:03:54.554Z,4.45
2022-08-11T18:06:34.137Z,4.51
2022-08-11T18:09:32.600Z,4.46
2022-08-11T18:12:21.814Z,4.83
2022-08-11T18:15:14.953Z,4.51
2022-08-11T18:18:02.755Z,4.45
2022-08-11T18:20:51.182Z,4.72
2022-08-11T18:23:46.846Z,4.83
2022-08-11T18:26:39.815Z,4.86
2022-08-11T18:29:27.958Z,4.52
2022-08-11T18:32:21.228Z,6.94
2022-08-11T18:35:13.685Z,5.78
2022-08-11T18:38:07.664Z,4.86
2022-08-11T18:40:56.358Z,4.68
2022-08-11T18:43:46.598Z,4.92
2022-08-11T18:46:37.361Z,5.01
2022-08-11T18:50:02.353Z,5.05
2022-08-11T18:52:48.224Z,5.06
2022-08-11T18:55:38.058Z,4.68
2022-08-11T18:58:29.023Z,5.22
2022-08-11T19:01:19.438Z,5.19
2022-08-11T19:04:10.644Z,6.28
2022-08-11T19:07:02.309Z,7.79
2022-08-11T19:09:50.145Z,5.34
2022-08-11T19:12:40.030Z,4.84
2022-08-11T19:15:31.953Z,4.95
2022-08-11T19:18:22.410Z,5.04
2022-08-11T19:21:14.234Z,4.60
2022-08-11T19:24:06.985Z,5.58
2022-08-11T19:26:55.046Z,5.37
2022-08-11T19:30:07.786Z,4.74
2022-08-11T19:32:52.395Z,4.88
2022-08-11T19:35:39.976Z,4.67
2022-08-11T19:38:29.150Z,4.86
2022-08-11T19:41:18.496Z,4.91
2022-08-11T19:44:26.784Z,4.67
2022-08-11T19:47:14.519Z,4.80
2022-08-11T19:50:02.729Z,6.73
2022-08-11T19:52:50.707Z,4.77
2022-08-11T19:55:38.378Z,4.76
2022-08-11T19:58:27.902Z,4.91
2022-08-11T20:01:16.443Z,4.71
2022-08-11T20:04:03.623Z,4.89
2022-08-11T20:06:54.599Z,8.32
2022-08-11T20:10:06.159Z,5.62
2022-08-11T20:12:51.207Z,5.17
2022-08-11T20:15:41.733Z,4.99
2022-08-11T20:18:32.810Z,5.00
2022-08-11T20:21:22.824Z,4.89
2022-08-11T20:24:21.790Z,4.89
2022-08-11T20:27:18.982Z,5.14
2022-08-11T20:30:14.346Z,5.21
2022-08-11T20:33:02.360Z,5.14
2022-08-11T20:35:50.058Z,4.89
2022-08-11T20:38:39.842Z,4.84
2022-08-11T20:41:31.288Z,5.05
2022-08-11T20:44:37.623Z,5.31
2022-08-11T20:47:25.079Z,5.09
2022-08-11T20:50:19.342Z,5.02
2022-08-11T20:53:06.323Z,5.06
2022-08-11T20:55:53.873Z,5.26
2022-08-11T20:59:14.056Z,5.30
2022-08-11T21:01:52.276Z,5.31
2022-08-11T21:04:54.443Z,5.06
2022-08-11T21:07:55.440Z,5.32
2022-08-11T21:10:50.614Z,5.82
2022-08-11T21:13:51.484Z,5.85
2022-08-11T21:16:47.604Z,5.64
2022-08-11T21:20:07.146Z,5.62
2022-08-11T21:23:06.702Z,6.00
2022-08-11T21:25:59.711Z,5.77
2022-08-11T21:28:47.492Z,5.81
2022-08-11T21:31:36.872Z,5.77
2022-08-11T21:34:26.347Z,6.01
2022-08-11T21:37:13.675Z,5.86
2022-08-11T21:40:04.152Z,5.87
2022-08-11T21:42:56.552Z,5.68
2022-08-11T21:45:46.020Z,5.84
2022-08-11T21:48:33.685Z,6.17
2022-08-11T21:51:20.087Z,6.16
2022-08-11T21:54:09.016Z,6.30
2022-08-11T21:56:57.057Z,6.40
2022-08-11T22:00:15.335Z,5.87
2022-08-11T22:03:05.764Z,6.00
2022-08-11T22:05:55.485Z,6.30
2022-08-11T22:08:42.146Z,6.03
2022-08-11T22:11:32.507Z,6.15
2022-08-11T22:14:23.102Z,6.35
2022-08-11T22:17:11.837Z,6.65
2022-08-11T22:20:01.006Z,6.55
2022-08-11T22:22:53.036Z,6.89
2022-08-11T22:25:51.575Z,6.44
2022-08-11T22:28:41.339Z,6.36
2022-08-11T22:31:31.035Z,6.32
2022-08-11T22:34:17.425Z,6.32
2022-08-11T22:37:07.042Z,6.53
2022-08-11T22:39:59.840Z,6.54
2022-08-11T22:42:51.117Z,6.50
2022-08-11T22:45:38.759Z,6.53
2022-08-11T22:48:26.900Z,6.65
2022-08-11T22:51:14.761Z,6.69
2022-08-11T22:54:03.692Z,6.95
2022-08-11T22:56:51.508Z,6.71
2022-08-11T22:59:39.666Z,7.11
2022-08-11T23:02:26.823Z,6.95
2022-08-11T23:05:14.109Z,6.86
2022-08-11T23:08:01.067Z,6.99
2022-08-11T23:10:48.415Z,6.96
2022-08-11T23:13:35.293Z,6.92
2022-08-11T23:16:22.535Z,7.17
2022-08-11T23:19:11.806Z,7.47
2022-08-11T23:21:59.917Z,7.50
2022-08-11T23:24:47.043Z,7.54
2022-08-11T23:27:35.042Z,7.15
2022-08-11T23:30:22.506Z,7.32
2022-08-11T23:33:13.579Z,7.27
2022-08-11T23:36:05.325Z,7.34
2022-08-11T23:38:53.067Z,7.06
2022-08-11T23:41:39.574Z,7.33
2022-08-11T23:44:28.999Z,7.65
2022-08-11T23:47:18.993Z,7.46
2022-08-11T23:50:06.795Z,7.79
2022-08-11T23:52:55.454Z,7.56
2022-08-11T23:55:42.579Z,7.85
2022-08-11T23:58:31.773Z,7.79
